Time;durP1;ratioP1;P1;durP2;ratioP2;P2;SDS_P1;SDS_P2;PMS_P1;PMS_P2;Temp;Humidity;BMP_temperature;BMP_pressure;BME280_temperature;BME280_humidity;BME280_pressure;Samples;Min_cycle;Max_cycle;Signal;HPM_P1;HPM_P2
2022/06/04 00:01:10;;;;;;;0.00;0.00;;;;;;;9.66;100.00;102136.78;10374549;28;20029;-72
2022/06/04 00:06:10;;;;;;;0.10;0.10;;;;;;;9.58;100.00;102141.88;10373903;28;20030;-72
2022/06/04 00:16:30;;;;;;;0.00;0.00;;;;;;;9.45;100.00;102141.97;10374328;28;20030;-71
2022/06/04 00:21:30;;;;;;;0.00;0.00;;;;;;;9.37;100.00;102131.09;10373513;28;20465;-71
2022/06/04 00:26:31;;;;;;;0.10;0.10;;;;;;;9.30;100.00;102136.03;10372886;28;20040;-71
2022/06/04 00:31:31;;;;;;;0.10;0.10;;;;;;;9.23;100.00;102146.28;10374120;28;20053;-71
2022/06/04 00:36:32;;;;;;;0.00;0.00;;;;;;;9.15;100.00;102138.06;10378309;28;20072;-71
2022/06/04 00:41:47;;;;;;;0.00;0.00;;;;;;;9.05;100.00;102145.91;10374996;28;20088;-71
2022/06/04 00:46:53;;;;;;;0.10;0.10;;;;;;;8.95;100.00;102144.88;10380582;28;20086;-71
2022/06/04 00:51:53;;;;;;;0.00;0.00;;;;;;;8.86;100.00;102142.94;10381558;28;20206;-71
2022/06/04 00:57:09;;;;;;;0.00;0.00;;;;;;;8.78;100.00;102147.97;10380212;28;20116;-71
2022/06/04 01:02:40;;;;;;;0.00;0.00;;;;;;;8.71;100.00;102152.06;10380635;28;20026;-71
2022/06/04 01:08:13;;;;;;;0.00;0.00;;;;;;;8.61;100.00;102142.13;10379765;28;20068;-71
2022/06/04 01:13:32;;;;;;;0.00;0.00;;;;;;;8.55;100.00;102142.59;10371936;28;20488;-71
2022/06/04 01:19:01;;;;;;;0.10;0.10;;;;;;;8.50;100.00;102136.75;10380659;28;20026;-72
2022/06/04 01:24:21;;;;;;;0.10;0.10;;;;;;;8.47;100.00;102131.69;10378482;28;20030;-71
2022/06/04 01:29:26;;;;;;;0.10;0.10;;;;;;;8.44;100.00;102134.56;10379811;28;19917;-71
2022/06/04 01:34:37;;;;;;;0.00;0.00;;;;;;;8.42;100.00;102127.66;10379380;28;20049;-71
2022/06/04 01:45:09;;;;;;;0.10;0.10;;;;;;;8.32;100.00;102141.59;10371438;28;20484;-71
2022/06/04 01:50:15;;;;;;;0.00;0.00;;;;;;;8.28;100.00;102134.78;10379649;28;20404;-71
2022/06/04 01:55:24;;;;;;;0.00;0.00;;;;;;;8.23;100.00;102134.31;10377966;28;20022;-71
2022/06/04 02:00:39;;;;;;;0.00;0.00;;;;;;;8.15;100.00;102137.50;10378364;28;20095;-71
2022/06/04 02:05:49;;;;;;;0.00;0.00;;;;;;;8.08;100.00;102130.94;10379015;28;20495;-71
2022/06/04 02:10:58;;;;;;;0.10;0.10;;;;;;;8.05;100.00;102133.81;10374307;28;20022;-71
2022/06/04 02:16:12;;;;;;;0.05;0.05;;;;;;;8.02;100.00;102134.03;10376448;28;20022;-71
2022/06/04 02:21:14;;;;;;;0.00;0.00;;;;;;;7.96;100.00;102130.97;10379171;28;20052;-71
2022/06/04 02:26:16;;;;;;;0.00;0.00;;;;;;;7.91;100.00;102126.00;10377443;28;20022;-71
2022/06/04 02:31:49;;;;;;;0.00;0.00;;;;;;;7.83;100.00;102118.59;10378241;28;20029;-72
2022/06/04 02:37:27;;;;;;;0.00;0.00;;;;;;;7.76;100.00;102140.34;10377744;28;20080;-71
2022/06/04 02:42:53;;;;;;;0.00;0.00;;;;;;;7.71;100.00;102144.19;10370462;28;20033;-72
2022/06/04 02:48:01;;;;;;;0.08;0.08;;;;;;;7.65;100.00;102134.03;10376313;28;20091;-71
2022/06/04 02:53:04;;;;;;;0.00;0.00;;;;;;;7.61;100.00;102129.88;10377534;28;20029;-71
2022/06/04 02:58:12;;;;;;;0.00;0.00;;;;;;;7.53;100.00;102129.56;10374707;28;20024;-71
2022/06/04 03:03:14;;;;;;;0.00;0.00;;;;;;;7.52;100.00;102133.16;10376617;28;20037;-71
2022/06/04 03:08:14;;;;;;;0.00;0.00;;;;;;;7.51;100.00;102136.78;10376018;28;20037;-71
2022/06/04 03:13:15;;;;;;;0.00;0.00;;;;;;;7.59;100.00;102139.75;10369764;28;20479;-71
2022/06/04 03:18:16;;;;;;;0.00;0.00;;;;;;;7.93;100.00;102142.66;10375630;28;20026;-72
2022/06/04 03:23:17;;;;;;;0.00;0.00;;;;;;;8.25;100.00;102153.59;10374113;28;20018;-71
2022/06/04 03:28:17;;;;;;;0.00;0.00;;;;;;;8.78;100.00;102166.56;10375117;28;20030;-71
2022/06/04 03:33:17;;;;;;;0.00;0.00;;;;;;;9.43;100.00;102171.34;10375390;28;20026;-71
2022/06/04 03:38:18;;;;;;;0.00;0.00;;;;;;;9.61;100.00;102178.88;10373270;28;20030;-71
2022/06/04 03:43:18;;;;;;;0.00;0.00;;;;;;;10.10;100.00;102170.50;10365028;28;20296;-71
2022/06/04 03:48:18;;;;;;;0.10;0.10;;;;;;;10.62;100.00;102184.09;10365271;28;20481;-71
2022/06/04 03:53:18;;;;;;;0.00;0.00;;;;;;;11.28;100.00;102190.06;10371399;28;20029;-71
2022/06/04 03:58:19;;;;;;;0.10;0.10;;;;;;;11.91;100.00;102198.03;10368851;28;20029;-71
2022/06/04 04:03:20;;;;;;;0.10;0.10;;;;;;;12.28;100.00;102201.97;10369332;28;20029;-72
2022/06/04 04:08:24;;;;;;;0.10;0.10;;;;;;;12.90;100.00;102203.44;10369829;28;20018;-71
2022/06/04 04:13:24;;;;;;;0.10;0.10;;;;;;;13.65;100.00;102199.13;10370981;28;20026;-72
2022/06/04 04:18:24;;;;;;;0.10;0.10;;;;;;;14.14;100.00;102197.09;10378437;28;20026;-71
2022/06/04 04:23:25;;;;;;;0.10;0.10;;;;;;;14.70;96.17;102197.88;10379673;28;20042;-72
2022/06/04 04:28:25;;;;;;;0.10;0.10;;;;;;;14.76;94.83;102188.38;10379276;28;20469;-72
2022/06/04 04:33:26;;;;;;;0.10;0.10;;;;;;;14.61;95.33;102188.09;10379551;28;20026;-72
2022/06/04 04:38:27;;;;;;;0.10;0.10;;;;;;;14.59;97.03;102188.22;10377635;28;20080;-72
2022/06/04 04:43:27;;;;;;;0.10;0.10;;;;;;;14.75;97.85;102174.13;10372116;28;20424;-72
2022/06/04 04:48:27;;;;;;;0.10;0.10;;;;;;;15.03;94.57;102171.34;10376855;28;20081;-72
2022/06/04 04:53:28;;;;;;;0.10;0.10;;;;;;;15.14;93.83;102171.09;10380621;28;20090;-71
2022/06/04 04:58:28;;;;;;;0.10;0.10;;;;;;;15.32;95.65;102152.25;10378934;28;20568;-72
2022/06/04 05:03:29;;;;;;;0.10;0.10;;;;;;;15.90;91.53;102158.81;10378512;28;20036;-72
2022/06/04 05:08:30;;;;;;;0.00;0.00;;;;;;;16.39;90.80;102164.34;10376559;28;20041;-72
2022/06/04 05:13:30;;;;;;;0.10;0.10;;;;;;;16.47;88.99;102153.59;10375926;28;20022;-71
2022/06/04 05:18:31;;;;;;;0.00;0.00;;;;;;;16.31;89.79;102151.72;10375513;28;20017;-72
2022/06/04 05:23:31;;;;;;;0.10;0.10;;;;;;;16.92;88.87;102171.16;10376397;28;20032;-71
2022/06/04 05:28:31;;;;;;;0.08;0.08;;;;;;;18.00;86.05;102176.16;10377793;28;20021;-72
2022/06/04 05:33:32;;;;;;;0.10;0.10;;;;;;;18.69;81.36;102178.97;10378015;28;20574;-72
2022/06/04 05:38:34;;;;;;;0.00;0.00;;;;;;;18.76;77.71;102175.41;10371451;28;20018;-72
2022/06/04 05:43:36;;;;;;;0.00;0.00;;;;;;;18.50;79.43;102185.66;10376211;28;20022;-71
2022/06/04 05:48:41;;;;;;;0.10;0.10;;;;;;;18.42;79.46;102197.34;10372918;28;20022;-72
2022/06/04 05:53:42;;;;;;;0.00;0.00;;;;;;;19.11;78.02;102193.84;10375302;28;20132;-72
2022/06/04 05:58:42;;;;;;;0.03;0.03;;;;;;;19.56;76.28;102187.50;10386879;22;20133;-74
2022/06/04 06:03:43;;;;;;;0.00;0.00;;;;;;;19.57;76.20;102204.53;10370893;28;20030;-74
2022/06/04 06:08:44;;;;;;;0.00;0.00;;;;;;;19.25;75.27;102206.53;10371318;28;20029;-74
2022/06/04 06:13:45;;;;;;;0.10;0.10;;;;;;;19.03;76.63;102202.03;10370885;28;20125;-74
2022/06/04 06:18:46;;;;;;;0.10;0.10;;;;;;;19.50;75.73;102209.00;10370606;28;20021;-74
2022/06/04 06:23:47;;;;;;;0.00;0.00;;;;;;;19.34;75.15;102205.44;10370067;28;20029;-71
2022/06/04 06:28:48;;;;;;;0.00;0.00;;;;;;;19.51;74.55;102211.50;10370836;28;20041;-72
2022/06/04 06:33:49;;;;;;;0.00;0.00;;;;;;;19.23;78.10;102225.66;10368965;28;20037;-72
2022/06/04 06:38:50;;;;;;;0.05;0.05;;;;;;;19.30;76.74;102225.75;10370653;28;20056;-72
2022/06/04 06:43:52;;;;;;;0.00;0.00;;;;;;;19.35;77.70;102228.75;10369653;28;20022;-72
2022/06/04 06:48:58;;;;;;;0.10;0.10;;;;;;;19.23;78.17;102232.91;10361929;28;20101;-74
2022/06/04 06:53:59;;;;;;;0.00;0.00;;;;;;;19.69;75.93;102232.81;10369121;28;20029;-72
2022/06/04 06:59:00;;;;;;;0.00;0.00;;;;;;;19.18;75.68;102246.13;10369915;28;20048;-72
2022/06/04 07:04:02;;;;;;;0.00;0.00;;;;;;;19.08;79.38;102237.41;10367592;28;20022;-72
2022/06/04 07:09:05;;;;;;;0.00;0.00;;;;;;;19.74;76.31;102243.09;10369197;28;20040;-72
2022/06/04 07:14:06;;;;;;;0.00;0.00;;;;;;;19.38;78.03;102247.28;10368737;28;20116;-72
2022/06/04 07:19:06;;;;;;;0.10;0.10;;;;;;;19.75;76.01;102244.75;10360845;28;20543;-72
2022/06/04 07:24:08;;;;;;;0.00;0.00;;;;;;;19.89;76.51;102243.91;10368361;28;20380;-72
2022/06/04 07:29:09;;;;;;;0.00;0.00;;;;;;;20.06;75.21;102255.38;10367973;28;20030;-72
2022/06/04 07:34:10;;;;;;;0.00;0.00;;;;;;;20.08;73.68;102262.28;10368426;28;20030;-72
2022/06/04 07:39:14;;;;;;;0.00;0.00;;;;;;;20.44;74.54;102260.66;10368995;28;20408;-72
2022/06/04 07:44:16;;;;;;;0.10;0.10;;;;;;;20.99;74.13;102253.81;10369704;28;20030;-72
2022/06/04 07:49:17;;;;;;;0.10;0.10;;;;;;;20.23;73.37;102248.75;10377957;28;20056;-72
2022/06/04 07:54:18;;;;;;;0.00;0.00;;;;;;;20.07;75.37;102266.03;10417075;28;20066;-73
2022/06/04 07:59:18;;;;;;;0.00;0.00;;;;;;;20.54;75.83;102258.53;10417218;28;20083;-72
2022/06/04 08:04:19;;;;;;;0.10;0.10;;;;;;;20.76;70.80;102256.69;10416453;28;20044;-72
2022/06/04 08:09:19;;;;;;;0.03;0.03;;;;;;;20.55;73.30;102254.78;10417053;28;20029;-73
2022/06/04 08:14:22;;;;;;;0.00;0.00;;;;;;;20.96;72.36;102260.44;10416349;28;20078;-73
2022/06/04 08:19:26;;;;;;;0.08;0.08;;;;;;;21.00;71.28;102266.31;10391927;28;20022;-73
2022/06/04 08:24:27;;;;;;;0.00;0.00;;;;;;;20.91;69.74;102267.47;10415613;28;20084;-73
2022/06/04 08:29:30;;;;;;;0.00;0.00;;;;;;;20.71;73.02;102268.09;10416581;28;20491;-73
2022/06/04 08:34:31;;;;;;;0.00;0.00;;;;;;;20.70;72.04;102269.13;10415446;28;20034;-72
2022/06/04 08:39:32;;;;;;;0.00;0.00;;;;;;;21.11;72.46;102273.09;10416117;28;20025;-72
2022/06/04 08:44:37;;;;;;;0.10;0.10;;;;;;;20.61;70.37;102281.09;10415100;28;20021;-73
2022/06/04 08:49:47;;;;;;;0.10;0.10;;;;;;;19.69;72.89;102286.88;10386939;28;20436;-72
2022/06/04 09:00:18;;;;;;;0.00;0.00;;;;;;;20.48;74.30;102275.50;10374798;28;20030;-73
2022/06/04 09:05:46;;;;;;;0.10;0.10;;;;;;;19.70;77.77;102280.47;10372173;28;20522;-73
2022/06/04 09:10:54;;;;;;;0.10;0.10;;;;;;;19.82;72.14;102275.44;10372584;28;20030;-73
2022/06/04 09:15:59;;;;;;;0.10;0.10;;;;;;;19.81;75.21;102274.59;10373072;28;20045;-73
2022/06/04 09:21:03;;;;;;;0.10;0.10;;;;;;;20.12;78.67;102276.28;10404488;28;20029;-72
2022/06/04 09:26:15;;;;;;;0.00;0.00;;;;;;;19.81;75.57;102280.00;10413486;28;20034;-72
2022/06/04 09:31:36;;;;;;;0.00;0.00;;;;;;;20.10;79.78;102281.03;10414192;28;20029;-73
2022/06/04 09:36:40;;;;;;;0.00;0.00;;;;;;;19.76;74.52;102285.13;10413046;28;20459;-72
2022/06/04 09:41:40;;;;;;;0.00;0.00;;;;;;;19.70;75.68;102275.06;10413757;28;20029;-73
2022/06/04 09:46:43;;;;;;;0.10;0.10;;;;;;;19.72;75.59;102283.81;10408613;28;20033;-73
2022/06/04 09:51:44;;;;;;;;;;;;;;;19.29;75.37;102293.47;10372157;28;20496;-73
2022/06/04 09:56:52;;;;;;;0.00;0.00;;;;;;;19.68;74.06;102287.91;10369955;28;19921;-73
2022/06/04 10:02:00;;;;;;;0.00;0.00;;;;;;;20.32;72.54;102293.63;10370453;28;20022;-73
2022/06/04 10:07:06;;;;;;;0.10;0.10;;;;;;;20.20;66.50;102289.72;10370981;28;20059;-73
2022/06/04 10:12:16;;;;;;;0.03;0.03;;;;;;;20.28;71.77;102297.75;10371963;28;20022;-73
2022/06/04 10:17:21;;;;;;;0.10;0.10;;;;;;;20.27;75.28;102301.44;10370449;28;20448;-73
2022/06/04 10:22:21;;;;;;;0.10;0.10;;;;;;;20.46;78.90;102283.81;10397308;28;20029;-73
2022/06/04 10:27:41;;;;;;;0.00;0.00;;;;;;;20.10;70.50;102279.19;10410905;28;20095;-73
2022/06/04 10:33:12;;;;;;;0.00;0.00;;;;;;;20.02;70.88;102283.84;10411625;28;20079;-72
2022/06/04 10:38:26;;;;;;;0.10;0.10;;;;;;;20.11;71.49;102288.97;10411006;28;20029;-73
2022/06/04 10:43:44;;;;;;;0.00;0.00;;;;;;;20.05;68.68;102288.88;10409802;28;20030;-73
2022/06/04 10:49:22;;;;;;;0.10;0.10;;;;;;;20.00;73.06;102285.91;10394675;28;20103;-73
2022/06/04 10:54:47;;;;;;;0.10;0.10;;;;;;;20.07;66.47;102284.09;10408682;28;20059;-73
2022/06/04 11:00:03;;;;;;;0.00;0.00;;;;;;;20.22;68.73;102284.13;10410778;28;20304;-73
2022/06/04 11:05:12;;;;;;;0.00;0.00;;;;;;;20.04;65.78;102279.94;10409576;28;20057;-73
2022/06/04 11:10:17;;;;;;;0.10;0.10;;;;;;;20.54;63.89;102274.78;10409043;28;20032;-73
2022/06/04 11:15:23;;;;;;;0.00;0.00;;;;;;;20.63;66.98;102278.22;10409280;28;20369;-73
2022/06/04 11:20:31;;;;;;;0.00;0.00;;;;;;;20.52;67.18;102265.97;10366672;28;20026;-73
2022/06/04 11:25:35;;;;;;;0.10;0.10;;;;;;;20.60;70.04;102268.59;10368077;28;20370;-73
2022/06/04 11:30:48;;;;;;;0.00;0.00;;;;;;;20.28;67.06;102264.44;10369070;28;20032;-73
2022/06/04 11:35:55;;;;;;;0.10;0.10;;;;;;;20.52;71.23;102265.97;10368232;28;20037;-73
2022/06/04 11:41:14;;;;;;;0.10;0.10;;;;;;;20.53;67.24;102259.56;10368775;28;20034;-73
2022/06/04 11:46:41;;;;;;;0.00;0.00;;;;;;;21.02;70.74;102259.66;10367120;28;20026;-73
2022/06/04 11:52:05;;;;;;;0.10;0.10;;;;;;;20.98;67.57;102252.13;10364571;28;20069;-73
2022/06/04 11:57:37;;;;;;;0.00;0.00;;;;;;;21.12;67.50;102253.94;10381806;23;20228;-72
2022/06/04 12:02:37;;;;;;;0.10;0.10;;;;;;;20.97;67.78;102256.72;10364493;28;20026;-72
2022/06/04 12:07:44;;;;;;;0.10;0.10;;;;;;;20.88;67.20;102252.44;10368019;28;20038;-72
2022/06/04 12:13:04;;;;;;;0.00;0.00;;;;;;;21.37;71.49;102254.38;10368329;28;20032;-72
2022/06/04 12:18:20;;;;;;;0.10;0.10;;;;;;;20.91;66.24;102253.91;10367234;28;20026;-72
2022/06/04 12:28:51;;;;;;;0.00;0.00;;;;;;;21.15;67.32;102237.28;10368069;28;20034;-71
2022/06/04 12:33:52;;;;;;;0.00;0.00;;;;;;;20.82;67.03;102236.97;10372352;28;20400;-72
2022/06/04 12:39:26;;;;;;;0.00;0.00;;;;;;;21.09;72.58;102229.09;10376587;28;20021;-72
2022/06/04 12:44:30;;;;;;;0.00;0.00;;;;;;;21.27;68.33;102245.72;10365752;28;20057;-72
2022/06/04 12:49:42;;;;;;;0.00;0.00;;;;;;;21.25;66.92;102231.53;10373859;28;20413;-73
2022/06/04 12:54:51;;;;;;;0.03;0.03;;;;;;;21.24;68.74;102243.41;10373963;28;20026;-72
2022/06/04 13:00:20;;;;;;;0.00;0.00;;;;;;;21.42;72.96;102243.78;10374486;28;20068;-72
2022/06/04 13:05:26;;;;;;;0.00;0.00;;;;;;;21.64;69.45;102241.88;10373539;28;20026;-73
2022/06/04 13:10:52;;;;;;;0.00;0.00;;;;;;;21.61;72.52;102235.97;10384432;28;20029;-72
2022/06/04 13:15:55;;;;;;;0.00;0.00;;;;;;;21.55;70.00;102234.91;10413946;28;20021;-72
2022/06/04 13:20:58;;;;;;;0.10;0.10;;;;;;;21.66;73.06;102228.09;10413709;28;20041;-72
2022/06/04 13:26:08;;;;;;;0.00;0.00;;;;;;;21.60;66.72;102235.16;10413411;28;20477;-72
2022/06/04 13:31:27;;;;;;;0.00;0.00;;;;;;;21.73;70.19;102228.13;10414192;28;20148;-73
2022/06/04 13:36:30;;;;;;;0.00;0.00;;;;;;;21.81;69.18;102226.09;10413446;28;20112;-72
2022/06/04 13:47:29;;;;;;;0.00;0.00;;;;;;;21.93;71.77;102221.81;10372427;28;20038;-72
2022/06/04 13:53:00;;;;;;;0.00;0.00;;;;;;;21.81;68.18;102225.28;10331833;28;20404;-73
2022/06/04 13:58:22;;;;;;;0.03;0.03;;;;;;;21.62;71.83;102211.41;10371295;28;20036;-73
2022/06/04 14:03:30;;;;;;;0.00;0.00;;;;;;;21.66;72.12;102212.66;10370657;28;20056;-70
2022/06/04 14:08:45;;;;;;;0.00;0.00;;;;;;;21.72;73.87;102213.75;10379395;28;20057;-73
2022/06/04 14:14:11;;;;;;;0.00;0.00;;;;;;;21.52;68.59;102210.91;10407473;28;20025;-72
2022/06/04 14:19:24;;;;;;;0.05;0.05;;;;;;;21.58;68.20;102209.28;10412610;28;20076;-72
2022/06/04 14:24:39;;;;;;;0.00;0.00;;;;;;;21.39;68.61;102195.41;10411459;28;20130;-72
2022/06/04 14:29:51;;;;;;;0.00;0.00;;;;;;;21.50;71.40;102201.28;10411904;28;20029;-72
2022/06/04 14:34:51;;;;;;;0.00;0.00;;;;;;;21.31;71.38;102197.38;10411292;28;20025;-73
2022/06/04 14:39:53;;;;;;;0.00;0.00;;;;;;;21.39;73.80;102203.53;10392029;28;20319;-72
2022/06/04 14:45:00;;;;;;;0.10;0.10;;;;;;;21.63;72.00;102195.97;10369843;28;20469;-72
2022/06/04 14:50:19;;;;;;;0.00;0.00;;;;;;;21.74;71.60;102192.69;10369102;28;20029;-72
2022/06/04 14:55:26;;;;;;;0.00;0.00;;;;;;;21.51;66.81;102203.81;10368605;28;20101;-72
2022/06/04 15:01:01;;;;;;;0.10;0.10;;;;;;;21.50;69.83;102199.44;10368650;28;20030;-73
2022/06/04 15:06:05;;;;;;;0.00;0.00;;;;;;;21.43;70.64;102196.66;10369261;28;20076;-73
2022/06/04 15:11:21;;;;;;;0.05;0.05;;;;;;;21.34;70.91;102195.09;10400376;28;20037;-72
2022/06/04 15:16:55;;;;;;;0.00;0.00;;;;;;;21.05;71.04;102193.41;10409612;28;20021;-73
2022/06/04 15:22:20;;;;;;;0.00;0.00;;;;;;;21.13;73.66;102193.28;10410376;28;20053;-72
2022/06/04 15:27:38;;;;;;;0.00;0.00;;;;;;;21.22;74.12;102180.44;10409279;28;20418;-72
2022/06/04 15:38:44;;;;;;;0.10;0.10;;;;;;;21.05;72.11;102181.75;10386932;28;20018;-72
2022/06/04 15:43:45;;;;;;;0.10;0.10;;;;;;;20.99;72.01;102180.66;10405773;28;20025;-72
2022/06/04 15:48:53;;;;;;;0.00;0.00;;;;;;;20.99;74.46;102167.13;10409918;28;20037;-72
2022/06/04 15:59:17;;;;;;;;;;;;;;;20.80;75.15;102160.50;10410401;28;20029;-72
2022/06/04 16:04:35;;;;;;;0.00;0.00;;;;;;;20.79;76.10;102167.78;10409556;28;19999;-72
2022/06/04 16:09:35;;;;;;;0.00;0.00;;;;;;;20.80;76.31;102164.06;10398443;28;20034;-72
2022/06/04 16:15:14;;;;;;;0.00;0.00;;;;;;;20.73;75.83;102157.72;10416602;28;20659;-72
2022/06/04 16:20:38;;;;;;;0.00;0.00;;;;;;;20.64;77.07;102164.31;10402762;28;20049;-72
2022/06/04 16:25:46;;;;;;;0.00;0.00;;;;;;;20.54;76.46;102161.94;10415835;28;20032;-72
2022/06/04 16:31:10;;;;;;;0.00;0.00;;;;;;;20.47;75.78;102163.69;10416496;28;20120;-72
2022/06/04 16:36:10;;;;;;;0.10;0.10;;;;;;;20.32;76.63;102155.63;10415875;28;20096;-71
2022/06/04 16:46:38;;;;;;;0.00;0.00;;;;;;;20.17;76.29;102165.66;10415585;28;20451;-72
2022/06/04 16:51:38;;;;;;;0.00;0.00;;;;;;;20.06;77.60;102166.13;10415608;28;20365;-72
2022/06/04 16:56:38;;;;;;;0.10;0.10;;;;;;;19.95;78.11;102166.63;10414760;28;20026;-72
2022/06/04 17:01:42;;;;;;;0.10;0.10;;;;;;;19.84;79.34;102159.84;10415800;28;20624;-72
2022/06/04 17:07:06;;;;;;;0.10;0.10;;;;;;;19.68;78.79;102163.56;10410854;28;20404;-71
2022/06/04 17:12:32;;;;;;;0.00;0.00;;;;;;;19.51;80.87;102151.22;10373515;28;20393;-72
2022/06/04 17:17:46;;;;;;;0.10;0.10;;;;;;;19.38;80.30;102163.53;10372124;28;20029;-72
2022/06/04 17:22:49;;;;;;;0.10;0.10;;;;;;;19.27;81.23;102157.75;10373483;28;20112;-72
2022/06/04 17:28:26;;;;;;;0.05;0.05;;;;;;;19.15;82.36;102160.88;10372609;28;20485;-71
2022/06/04 17:33:34;;;;;;;0.10;0.10;;;;;;;19.07;81.67;102163.66;10373118;28;20036;-71
2022/06/04 17:39:39;;;;;;;0.10;0.10;;;;;;;18.98;81.27;102153.97;10371258;28;20022;-71
2022/06/04 17:44:39;;;;;;;0.10;0.10;;;;;;;18.87;80.96;102149.81;10312900;28;20116;-72
2022/06/04 17:49:39;;;;;;;0.10;0.10;;;;;;;18.78;81.41;102156.31;10413465;28;20163;-72
2022/06/04 17:54:40;;;;;;;0.00;0.00;;;;;;;18.66;81.32;102161.28;10412424;28;20473;-73
2022/06/04 17:59:40;;;;;;;0.00;0.00;;;;;;;18.58;81.90;102155.09;10404018;22;20045;-73
2022/06/04 18:04:40;;;;;;;0.10;0.10;;;;;;;18.45;82.39;102161.09;10371239;28;20032;-73
2022/06/04 18:09:41;;;;;;;0.00;0.00;;;;;;;18.33;81.57;102157.97;10372249;28;20076;-73
2022/06/04 18:14:41;;;;;;;0.00;0.00;;;;;;;18.27;81.95;102162.22;10372635;28;20551;-73
2022/06/04 18:19:42;;;;;;;0.08;0.08;;;;;;;18.20;82.97;102161.22;10370476;28;20271;-73
2022/06/04 18:24:42;;;;;;;0.10;0.10;;;;;;;18.10;83.60;102169.53;10371633;28;20022;-73
2022/06/04 18:29:43;;;;;;;0.10;0.10;;;;;;;17.99;85.21;102166.41;10371452;28;20091;-73
2022/06/04 18:34:43;;;;;;;0.10;0.10;;;;;;;17.88;85.61;102171.16;10371263;28;20032;-73
2022/06/04 18:39:44;;;;;;;0.10;0.10;;;;;;;17.78;86.49;102180.47;10371240;28;20048;-73
2022/06/04 18:55:22;;;;;;;0.10;0.10;;;;;;;17.45;90.29;102185.06;10370715;28;20026;-73
2022/06/04 19:00:23;;;;;;;0.10;0.10;;;;;;;17.31;93.76;102183.94;10370467;28;20488;-73
2022/06/04 19:05:23;;;;;;;0.10;0.10;;;;;;;17.17;100.00;102193.53;10368940;28;20393;-72
2022/06/04 19:15:42;;;;;;;0.10;0.10;;;;;;;16.84;100.00;102198.06;10369983;28;20030;-73
2022/06/04 19:26:04;;;;;;;0.10;0.10;;;;;;;16.47;100.00;102202.00;10370071;28;20081;-73
2022/06/04 19:31:04;;;;;;;0.10;0.10;;;;;;;16.30;100.00;102201.97;10369618;28;20058;-73
2022/06/04 19:36:05;;;;;;;0.00;0.00;;;;;;;16.21;100.00;102213.69;10369188;28;20029;-72
2022/06/04 19:41:09;;;;;;;0.10;0.10;;;;;;;16.05;100.00;102210.94;10370270;28;20156;-72
2022/06/04 19:46:09;;;;;;;0.10;0.10;;;;;;;15.80;100.00;102215.38;10369031;28;20034;-72
2022/06/04 19:51:10;;;;;;;0.10;0.10;;;;;;;15.57;100.00;102209.66;10369281;28;20389;-72
2022/06/04 19:56:13;;;;;;;0.10;0.10;;;;;;;15.36;100.00;102218.91;10369062;28;20676;-72
2022/06/04 20:01:14;;;;;;;0.10;0.10;;;;;;;14.96;100.00;102224.78;10368955;28;20041;-72
2022/06/04 20:06:15;;;;;;;0.10;0.10;;;;;;;14.61;100.00;102228.31;10368821;28;20388;-72
2022/06/04 20:11:17;;;;;;;0.03;0.03;;;;;;;14.31;100.00;102227.63;10369165;28;20022;-72
2022/06/04 20:16:17;;;;;;;0.10;0.10;;;;;;;14.01;100.00;102234.91;10367359;28;20022;-72
2022/06/04 20:21:19;;;;;;;0.10;0.10;;;;;;;13.91;100.00;102236.81;10367303;28;20026;-72
2022/06/04 20:26:20;;;;;;;0.10;0.10;;;;;;;13.69;100.00;102240.66;10368286;28;20030;-72
2022/06/04 20:31:20;;;;;;;0.08;0.08;;;;;;;13.50;100.00;102238.06;10368746;28;20432;-72
2022/06/04 20:36:22;;;;;;;0.10;0.10;;;;;;;13.31;100.00;102237.09;10368840;28;20465;-72
2022/06/04 20:41:25;;;;;;;0.10;0.10;;;;;;;13.10;100.00;102241.72;10368315;28;20084;-72
2022/06/04 20:46:28;;;;;;;0.10;0.10;;;;;;;12.90;100.00;102241.72;10367857;28;20030;-71
2022/06/04 20:51:29;;;;;;;0.17;0.17;;;;;;;12.76;100.00;102239.44;10369371;28;20045;-72
2022/06/04 20:56:30;;;;;;;0.10;0.10;;;;;;;12.67;100.00;102234.94;10375223;28;20469;-72
2022/06/04 21:01:30;;;;;;;0.10;0.10;;;;;;;12.42;100.00;102236.28;10374906;28;20029;-72
2022/06/04 21:06:35;;;;;;;0.10;0.10;;;;;;;12.24;100.00;102228.91;10374678;28;20562;-72
2022/06/04 21:11:35;;;;;;;0.10;0.10;;;;;;;12.15;100.00;102232.41;10374733;28;20108;-70
2022/06/04 21:16:36;;;;;;;0.10;0.10;;;;;;;12.14;100.00;102233.41;10374147;28;20510;-71
2022/06/04 21:21:38;;;;;;;0.10;0.10;;;;;;;12.11;100.00;102232.81;10372944;28;20643;-72
2022/06/04 21:26:41;;;;;;;0.10;0.10;;;;;;;12.09;100.00;102246.31;10372563;28;20032;-71
2022/06/04 21:31:43;;;;;;;0.10;0.10;;;;;;;12.08;100.00;102241.94;10372586;28;20486;-72
2022/06/04 21:42:03;;;;;;;0.10;0.10;;;;;;;12.00;100.00;102226.59;10373413;28;20480;-72
2022/06/04 21:47:03;;;;;;;0.00;0.00;;;;;;;11.98;100.00;102228.56;10373073;28;20106;-72
2022/06/04 21:52:05;;;;;;;0.00;0.00;;;;;;;11.88;100.00;102229.50;10371778;28;20025;-71
2022/06/04 21:57:06;;;;;;;0.10;0.10;;;;;;;11.80;100.00;102227.44;10372686;28;20021;-72
2022/06/04 22:02:07;;;;;;;0.10;0.10;;;;;;;11.61;100.00;102230.88;10372341;28;20400;-71
2022/06/04 22:07:07;;;;;;;0.10;0.10;;;;;;;11.48;100.00;102224.88;10372849;28;20029;-71
2022/06/04 22:12:08;;;;;;;0.10;0.10;;;;;;;11.29;100.00;102228.28;10372293;28;20492;-71
2022/06/04 22:17:09;;;;;;;0.10;0.10;;;;;;;11.21;100.00;102244.06;10370681;28;20762;-72
2022/06/04 22:22:12;;;;;;;0.10;0.10;;;;;;;11.21;100.00;102234.25;10371974;28;20022;-70
2022/06/04 22:27:13;;;;;;;0.00;0.00;;;;;;;11.25;100.00;102238.34;10370606;28;20026;-72
2022/06/04 22:32:14;;;;;;;0.03;0.03;;;;;;;11.20;100.00;102237.03;10371458;28;20029;-72
2022/06/04 22:37:14;;;;;;;0.03;0.03;;;;;;;11.13;100.00;102230.53;10371265;28;20492;-71
2022/06/04 22:42:15;;;;;;;0.10;0.10;;;;;;;11.04;100.00;102230.31;10371234;28;20393;-70
2022/06/04 22:47:18;;;;;;;0.10;0.10;;;;;;;10.95;100.00;102231.09;10370769;28;20033;-71
2022/06/04 22:52:19;;;;;;;0.00;0.00;;;;;;;10.76;100.00;102230.91;10370798;28;20033;-72
2022/06/04 22:57:19;;;;;;;0.00;0.00;;;;;;;10.55;100.00;102228.19;10370456;28;20037;-72
2022/06/04 23:02:19;;;;;;;0.10;0.10;;;;;;;10.39;100.00;102208.13;10370415;28;20153;-71
2022/06/04 23:07:19;;;;;;;0.00;0.00;;;;;;;10.31;100.00;102213.22;10370714;28;20084;-72
2022/06/04 23:23:05;;;;;;;0.10;0.10;;;;;;;9.93;100.00;102208.25;10369891;28;20033;-71
2022/06/04 23:28:07;;;;;;;0.00;0.00;;;;;;;9.91;100.00;102207.53;10370154;28;20051;-71
2022/06/04 23:33:07;;;;;;;0.10;0.10;;;;;;;9.85;100.00;102206.19;10370175;28;20269;-71
2022/06/04 23:38:08;;;;;;;0.00;0.00;;;;;;;9.83;100.00;102218.78;10369407;28;20018;-71
2022/06/04 23:43:09;;;;;;;0.10;0.10;;;;;;;9.79;100.00;102222.66;10369323;28;20472;-71
2022/06/04 23:48:12;;;;;;;0.00;0.00;;;;;;;9.80;100.00;102221.66;10369224;28;20751;-71
2022/06/04 23:53:16;;;;;;;0.00;0.00;;;;;;;9.72;100.00;102232.94;10369167;28;20037;-71
2022/06/04 23:58:16;;;;;;;0.00;0.00;;;;;;;9.72;100.00;102232.94;10374104;23;20141;-71
